Terminal Aerodrome Forecast
Issued by NWS Boston, MA

Current Version | Previous Version | Text Only | Print | Product List | Glossary On
Versions: 1 2 3 4 5 6 7 8 9 10 11 12 13 14 15 16 17 18 19 20 21 22 23 24
000 FTUS41 KBOX 211739 AAC TAFBOS TAF AMD KBOS 211739Z 2118/2224 02023G35KT P6SM SCT040 BKN200 FM220500 02020G30KT P6SM SCT020 BKN040 FM220800 02018G28KT P6SM OVC020 FM221500 02016G25KT P6SM VCSH BKN020 OVC035=

USA.gov is the U.S. government's official web portal to all federal, state and local government web resources and services.